sensor_id;sensor_type;location;lat;lon;timestamp;P1;durP1;ratioP1;P2;durP2;ratioP2
56481;SDS011;42384;45.186;19.958;2022-08-11T00:01:43;4.03;;;1.55;;
56481;SDS011;42384;45.186;19.958;2022-08-11T00:04:09;3.60;;;1.55;;
56481;SDS011;42384;45.186;19.958;2022-08-11T00:06:37;3.60;;;1.65;;
56481;SDS011;42384;45.186;19.958;2022-08-11T00:09:06;11.13;;;6.25;;
56481;SDS011;42384;45.186;19.958;2022-08-11T00:11:34;13.35;;;9.15;;
56481;SDS011;42384;45.186;19.958;2022-08-11T00:14:00;30.52;;;20.63;;
56481;SDS011;42384;45.186;19.958;2022-08-11T00:16:27;12.57;;;4.40;;
56481;SDS011;42384;45.186;19.958;2022-08-11T00:18:55;6.32;;;1.92;;
56481;SDS011;42384;45.186;19.958;2022-08-11T00:21:22;7.65;;;1.73;;
56481;SDS011;42384;45.186;19.958;2022-08-11T00:23:53;6.90;;;2.03;;
56481;SDS011;42384;45.186;19.958;2022-08-11T00:26:20;4.28;;;1.48;;
56481;SDS011;42384;45.186;19.958;2022-08-11T00:28:47;4.18;;;2.30;;
56481;SDS011;42384;45.186;19.958;2022-08-11T00:31:28;5.18;;;1.70;;
56481;SDS011;42384;45.186;19.958;2022-08-11T00:33:55;6.28;;;2.05;;
56481;SDS011;42384;45.186;19.958;2022-08-11T00:36:27;7.03;;;1.60;;
56481;SDS011;42384;45.186;19.958;2022-08-11T00:38:55;5.47;;;1.88;;
56481;SDS011;42384;45.186;19.958;2022-08-11T00:46:45;8.95;;;2.50;;
56481;SDS011;42384;45.186;19.958;2022-08-11T00:51:54;5.82;;;1.85;;
56481;SDS011;42384;45.186;19.958;2022-08-11T00:54:37;4.32;;;1.48;;
56481;SDS011;42384;45.186;19.958;2022-08-11T00:57:18;3.33;;;1.50;;
56481;SDS011;42384;45.186;19.958;2022-08-11T01:07:58;3.10;;;1.40;;
56481;SDS011;42384;45.186;19.958;2022-08-11T01:18:52;6.80;;;1.40;;
56481;SDS011;42384;45.186;19.958;2022-08-11T01:32:36;3.17;;;1.67;;
56481;SDS011;42384;45.186;19.958;2022-08-11T01:35:19;3.92;;;1.70;;
56481;SDS011;42384;45.186;19.958;2022-08-11T02:01:57;4.60;;;1.77;;
56481;SDS011;42384;45.186;19.958;2022-08-11T02:13:03;7.57;;;1.20;;
56481;SDS011;42384;45.186;19.958;2022-08-11T02:15:37;2.90;;;1.45;;
56481;SDS011;42384;45.186;19.958;2022-08-11T02:18:07;4.30;;;1.48;;
56481;SDS011;42384;45.186;19.958;2022-08-11T02:20:47;7.10;;;1.70;;
56481;SDS011;42384;45.186;19.958;2022-08-11T02:23:42;5.47;;;1.80;;
56481;SDS011;42384;45.186;19.958;2022-08-11T02:34:43;5.35;;;1.55;;
56481;SDS011;42384;45.186;19.958;2022-08-11T02:37:16;3.63;;;1.60;;
56481;SDS011;42384;45.186;19.958;2022-08-11T02:50:02;4.18;;;1.50;;
56481;SDS011;42384;45.186;19.958;2022-08-11T02:52:33;4.55;;;1.42;;
56481;SDS011;42384;45.186;19.958;2022-08-11T02:57:28;9.35;;;1.85;;
56481;SDS011;42384;45.186;19.958;2022-08-11T03:00:06;4.10;;;1.45;;
56481;SDS011;42384;45.186;19.958;2022-08-11T03:13:35;3.78;;;1.42;;
56481;SDS011;42384;45.186;19.958;2022-08-11T03:16:34;5.80;;;1.60;;
56481;SDS011;42384;45.186;19.958;2022-08-11T03:19:48;7.03;;;1.67;;
56481;SDS011;42384;45.186;19.958;2022-08-11T03:32:45;7.28;;;1.83;;
56481;SDS011;42384;45.186;19.958;2022-08-11T03:35:36;6.13;;;2.05;;
56481;SDS011;42384;45.186;19.958;2022-08-11T03:38:03;5.13;;;1.90;;
56481;SDS011;42384;45.186;19.958;2022-08-11T03:43:23;7.93;;;2.20;;
56481;SDS011;42384;45.186;19.958;2022-08-11T03:48:46;9.23;;;2.80;;
56481;SDS011;42384;45.186;19.958;2022-08-11T03:51:21;7.97;;;2.60;;
56481;SDS011;42384;45.186;19.958;2022-08-11T04:02:07;7.07;;;2.67;;
56481;SDS011;42384;45.186;19.958;2022-08-11T04:23:06;6.28;;;3.38;;
56481;SDS011;42384;45.186;19.958;2022-08-11T04:30:58;9.13;;;2.88;;
56481;SDS011;42384;45.186;19.958;2022-08-11T04:33:36;10.57;;;3.58;;
56481;SDS011;42384;45.186;19.958;2022-08-11T04:38:57;7.43;;;3.45;;
56481;SDS011;42384;45.186;19.958;2022-08-11T04:41:32;8.75;;;3.67;;
56481;SDS011;42384;45.186;19.958;2022-08-11T04:50:16;9.98;;;3.83;;
56481;SDS011;42384;45.186;19.958;2022-08-11T04:56:08;8.32;;;3.50;;
56481;SDS011;42384;45.186;19.958;2022-08-11T04:59:11;7.13;;;3.60;;
56481;SDS011;42384;45.186;19.958;2022-08-11T05:02:21;6.47;;;3.17;;
56481;SDS011;42384;45.186;19.958;2022-08-11T05:12:55;6.25;;;3.40;;
56481;SDS011;42384;45.186;19.958;2022-08-11T05:15:50;8.80;;;3.65;;
56481;SDS011;42384;45.186;19.958;2022-08-11T05:18:37;10.70;;;3.58;;
56481;SDS011;42384;45.186;19.958;2022-08-11T05:21:29;8.88;;;3.70;;
56481;SDS011;42384;45.186;19.958;2022-08-11T05:24:19;35.03;;;6.10;;
56481;SDS011;42384;45.186;19.958;2022-08-11T05:27:06;10.38;;;4.10;;
56481;SDS011;42384;45.186;19.958;2022-08-11T05:32:38;12.20;;;3.33;;
56481;SDS011;42384;45.186;19.958;2022-08-11T05:35:30;9.20;;;3.72;;
56481;SDS011;42384;45.186;19.958;2022-08-11T05:37:57;7.53;;;3.13;;
56481;SDS011;42384;45.186;19.958;2022-08-11T05:40:46;7.38;;;2.65;;
56481;SDS011;42384;45.186;19.958;2022-08-11T05:43:32;13.25;;;3.75;;
56481;SDS011;42384;45.186;19.958;2022-08-11T05:46:17;15.65;;;3.60;;
56481;SDS011;42384;45.186;19.958;2022-08-11T05:49:02;13.15;;;3.25;;
56481;SDS011;42384;45.186;19.958;2022-08-11T05:51:52;8.32;;;2.78;;
56481;SDS011;42384;45.186;19.958;2022-08-11T05:54:37;33.25;;;5.15;;
56481;SDS011;42384;45.186;19.958;2022-08-11T05:57:31;29.02;;;3.80;;
56481;SDS011;42384;45.186;19.958;2022-08-11T05:59:59;6.65;;;2.60;;
56481;SDS011;42384;45.186;19.958;2022-08-11T06:02:26;10.38;;;2.80;;
56481;SDS011;42384;45.186;19.958;2022-08-11T06:04:56;4.68;;;2.38;;
56481;SDS011;42384;45.186;19.958;2022-08-11T06:07:26;11.00;;;2.65;;
56481;SDS011;42384;45.186;19.958;2022-08-11T06:09:54;12.75;;;3.20;;
56481;SDS011;42384;45.186;19.958;2022-08-11T06:12:22;14.02;;;4.22;;
56481;SDS011;42384;45.186;19.958;2022-08-11T06:14:52;18.55;;;3.83;;
56481;SDS011;42384;45.186;19.958;2022-08-11T06:17:26;17.80;;;3.95;;
56481;SDS011;42384;45.186;19.958;2022-08-11T06:20:05;54.83;;;6.53;;
56481;SDS011;42384;45.186;19.958;2022-08-11T06:22:36;14.38;;;3.80;;
56481;SDS011;42384;45.186;19.958;2022-08-11T06:25:02;37.20;;;5.10;;
56481;SDS011;42384;45.186;19.958;2022-08-11T06:27:32;20.00;;;3.83;;
56481;SDS011;42384;45.186;19.958;2022-08-11T06:29:59;15.45;;;3.42;;
56481;SDS011;42384;45.186;19.958;2022-08-11T06:32:33;14.10;;;3.00;;
56481;SDS011;42384;45.186;19.958;2022-08-11T06:42:56;16.35;;;2.97;;
56481;SDS011;42384;45.186;19.958;2022-08-11T06:47:44;30.92;;;4.10;;
56481;SDS011;42384;45.186;19.958;2022-08-11T06:50:14;20.58;;;3.70;;
56481;SDS011;42384;45.186;19.958;2022-08-11T06:53:00;16.67;;;3.97;;
56481;SDS011;42384;45.186;19.958;2022-08-11T06:55:27;12.02;;;3.75;;
56481;SDS011;42384;45.186;19.958;2022-08-11T06:58:17;21.00;;;3.92;;
56481;SDS011;42384;45.186;19.958;2022-08-11T07:01:04;28.75;;;5.65;;
56481;SDS011;42384;45.186;19.958;2022-08-11T07:03:32;20.92;;;4.07;;
56481;SDS011;42384;45.186;19.958;2022-08-11T07:06:09;31.15;;;5.63;;
56481;SDS011;42384;45.186;19.958;2022-08-11T07:11:38;11.52;;;3.80;;
56481;SDS011;42384;45.186;19.958;2022-08-11T07:14:28;25.42;;;4.95;;
56481;SDS011;42384;45.186;19.958;2022-08-11T07:17:14;15.07;;;3.92;;
56481;SDS011;42384;45.186;19.958;2022-08-11T07:19:42;29.95;;;7.45;;
56481;SDS011;42384;45.186;19.958;2022-08-11T07:22:28;34.53;;;6.70;;
56481;SDS011;42384;45.186;19.958;2022-08-11T07:25:35;28.35;;;4.40;;
56481;SDS011;42384;45.186;19.958;2022-08-11T07:28:26;15.63;;;4.45;;
56481;SDS011;42384;45.186;19.958;2022-08-11T07:31:45;30.60;;;4.85;;
56481;SDS011;42384;45.186;19.958;2022-08-11T07:36:39;11.23;;;3.08;;
56481;SDS011;42384;45.186;19.958;2022-08-11T07:39:07;17.10;;;3.60;;
56481;SDS011;42384;45.186;19.958;2022-08-11T07:41:35;10.90;;;3.22;;
56481;SDS011;42384;45.186;19.958;2022-08-11T07:44:03;12.25;;;3.63;;
56481;SDS011;42384;45.186;19.958;2022-08-11T07:46:42;12.77;;;3.40;;
56481;SDS011;42384;45.186;19.958;2022-08-11T07:49:28;9.68;;;2.78;;
56481;SDS011;42384;45.186;19.958;2022-08-11T07:52:14;9.55;;;2.97;;
56481;SDS011;42384;45.186;19.958;2022-08-11T07:55:02;19.98;;;3.70;;
56481;SDS011;42384;45.186;19.958;2022-08-11T07:57:30;6.88;;;2.92;;
56481;SDS011;42384;45.186;19.958;2022-08-11T08:00:15;18.25;;;3.72;;
56481;SDS011;42384;45.186;19.958;2022-08-11T08:03:00;27.80;;;5.43;;
56481;SDS011;42384;45.186;19.958;2022-08-11T08:05:46;24.92;;;5.03;;
56481;SDS011;42384;45.186;19.958;2022-08-11T08:08:31;12.73;;;3.58;;
56481;SDS011;42384;45.186;19.958;2022-08-11T08:11:18;17.75;;;4.90;;
56481;SDS011;42384;45.186;19.958;2022-08-11T08:14:07;11.90;;;3.60;;
56481;SDS011;42384;45.186;19.958;2022-08-11T08:16:53;13.98;;;3.25;;
56481;SDS011;42384;45.186;19.958;2022-08-11T08:19:39;11.52;;;3.53;;
56481;SDS011;42384;45.186;19.958;2022-08-11T08:22:09;17.33;;;3.50;;
56481;SDS011;42384;45.186;19.958;2022-08-11T08:24:35;19.67;;;4.55;;
56481;SDS011;42384;45.186;19.958;2022-08-11T08:27:02;28.13;;;5.93;;
56481;SDS011;42384;45.186;19.958;2022-08-11T08:29:32;18.08;;;4.53;;
56481;SDS011;42384;45.186;19.958;2022-08-11T08:32:18;15.55;;;4.57;;
56481;SDS011;42384;45.186;19.958;2022-08-11T08:34:46;8.38;;;3.03;;
56481;SDS011;42384;45.186;19.958;2022-08-11T08:37:16;16.17;;;4.72;;
56481;SDS011;42384;45.186;19.958;2022-08-11T08:39:44;42.22;;;6.53;;
56481;SDS011;42384;45.186;19.958;2022-08-11T08:42:11;7.38;;;3.75;;
56481;SDS011;42384;45.186;19.958;2022-08-11T08:44:39;14.65;;;5.05;;
56481;SDS011;42384;45.186;19.958;2022-08-11T08:47:06;8.93;;;4.35;;
56481;SDS011;42384;45.186;19.958;2022-08-11T08:49:38;15.55;;;4.95;;
56481;SDS011;42384;45.186;19.958;2022-08-11T08:52:06;13.40;;;4.38;;
56481;SDS011;42384;45.186;19.958;2022-08-11T08:54:34;15.50;;;4.63;;
56481;SDS011;42384;45.186;19.958;2022-08-11T08:57:02;18.10;;;4.63;;
56481;SDS011;42384;45.186;19.958;2022-08-11T08:59:29;14.75;;;4.57;;
56481;SDS011;42384;45.186;19.958;2022-08-11T09:01:58;9.85;;;4.38;;
56481;SDS011;42384;45.186;19.958;2022-08-11T09:04:25;9.82;;;4.38;;
56481;SDS011;42384;45.186;19.958;2022-08-11T09:06:52;16.65;;;4.30;;
56481;SDS011;42384;45.186;19.958;2022-08-11T09:09:21;8.30;;;3.90;;
56481;SDS011;42384;45.186;19.958;2022-08-11T09:11:48;8.48;;;3.92;;
56481;SDS011;42384;45.186;19.958;2022-08-11T09:14:14;13.40;;;4.65;;
56481;SDS011;42384;45.186;19.958;2022-08-11T09:16:41;10.45;;;3.72;;
56481;SDS011;42384;45.186;19.958;2022-08-11T09:19:08;12.30;;;3.95;;
56481;SDS011;42384;45.186;19.958;2022-08-11T09:21:34;8.02;;;2.95;;
56481;SDS011;42384;45.186;19.958;2022-08-11T09:24:05;10.88;;;3.35;;
56481;SDS011;42384;45.186;19.958;2022-08-11T09:26:50;27.48;;;6.85;;
56481;SDS011;42384;45.186;19.958;2022-08-11T09:29:23;4.60;;;3.05;;
56481;SDS011;42384;45.186;19.958;2022-08-11T09:31:51;10.93;;;4.45;;
56481;SDS011;42384;45.186;19.958;2022-08-11T09:36:43;19.42;;;3.72;;
56481;SDS011;42384;45.186;19.958;2022-08-11T09:39:29;5.93;;;2.30;;
56481;SDS011;42384;45.186;19.958;2022-08-11T09:42:15;19.00;;;3.28;;
56481;SDS011;42384;45.186;19.958;2022-08-11T09:44:41;11.73;;;2.70;;
56481;SDS011;42384;45.186;19.958;2022-08-11T09:47:18;21.88;;;2.97;;
56481;SDS011;42384;45.186;19.958;2022-08-11T09:49:45;12.90;;;2.50;;
56481;SDS011;42384;45.186;19.958;2022-08-11T09:52:13;7.30;;;2.30;;
56481;SDS011;42384;45.186;19.958;2022-08-11T09:54:40;4.10;;;1.95;;
56481;SDS011;42384;45.186;19.958;2022-08-11T09:57:07;11.73;;;2.85;;
56481;SDS011;42384;45.186;19.958;2022-08-11T09:59:52;7.35;;;2.20;;
56481;SDS011;42384;45.186;19.958;2022-08-11T10:02:26;10.30;;;2.13;;
56481;SDS011;42384;45.186;19.958;2022-08-11T10:04:56;12.30;;;2.55;;
56481;SDS011;42384;45.186;19.958;2022-08-11T10:07:46;10.00;;;2.00;;
56481;SDS011;42384;45.186;19.958;2022-08-11T10:10:16;5.05;;;1.95;;
56481;SDS011;42384;45.186;19.958;2022-08-11T10:12:57;7.07;;;1.77;;
56481;SDS011;42384;45.186;19.958;2022-08-11T10:15:24;7.68;;;2.13;;
56481;SDS011;42384;45.186;19.958;2022-08-11T10:23:15;7.53;;;2.42;;
56481;SDS011;42384;45.186;19.958;2022-08-11T10:26:01;11.43;;;2.17;;
56481;SDS011;42384;45.186;19.958;2022-08-11T10:28:46;5.40;;;1.67;;
56481;SDS011;42384;45.186;19.958;2022-08-11T10:31:13;14.60;;;1.77;;
56481;SDS011;42384;45.186;19.958;2022-08-11T10:33:58;4.95;;;1.60;;
56481;SDS011;42384;45.186;19.958;2022-08-11T10:36:41;10.23;;;1.70;;
56481;SDS011;42384;45.186;19.958;2022-08-11T10:39:13;4.05;;;1.60;;
56481;SDS011;42384;45.186;19.958;2022-08-11T10:41:42;4.28;;;1.35;;
56481;SDS011;42384;45.186;19.958;2022-08-11T10:44:28;6.25;;;1.65;;
56481;SDS011;42384;45.186;19.958;2022-08-11T10:46:55;9.43;;;1.95;;
56481;SDS011;42384;45.186;19.958;2022-08-11T10:49:39;10.05;;;2.17;;
56481;SDS011;42384;45.186;19.958;2022-08-11T10:52:07;11.10;;;2.13;;
56481;SDS011;42384;45.186;19.958;2022-08-11T10:54:52;6.68;;;1.58;;
56481;SDS011;42384;45.186;19.958;2022-08-11T10:57:37;7.88;;;1.95;;
56481;SDS011;42384;45.186;19.958;2022-08-11T11:00:22;13.45;;;1.73;;
56481;SDS011;42384;45.186;19.958;2022-08-11T11:02:48;11.70;;;2.00;;
56481;SDS011;42384;45.186;19.958;2022-08-11T11:05:23;9.88;;;1.85;;
56481;SDS011;42384;45.186;19.958;2022-08-11T11:07:54;9.15;;;2.13;;
56481;SDS011;42384;45.186;19.958;2022-08-11T11:10:21;4.78;;;1.30;;
56481;SDS011;42384;45.186;19.958;2022-08-11T11:12:50;6.38;;;1.50;;
56481;SDS011;42384;45.186;19.958;2022-08-11T11:15:36;7.15;;;1.65;;
56481;SDS011;42384;45.186;19.958;2022-08-11T11:18:33;15.38;;;1.77;;
56481;SDS011;42384;45.186;19.958;2022-08-11T11:31:15;20.13;;;2.58;;
56481;SDS011;42384;45.186;19.958;2022-08-11T11:36:36;9.27;;;1.80;;
56481;SDS011;42384;45.186;19.958;2022-08-11T11:39:06;6.28;;;0.95;;
56481;SDS011;42384;45.186;19.958;2022-08-11T11:41:32;4.28;;;1.10;;
56481;SDS011;42384;45.186;19.958;2022-08-11T11:43:59;4.90;;;1.17;;
56481;SDS011;42384;45.186;19.958;2022-08-11T11:48:52;4.40;;;0.75;;
56481;SDS011;42384;45.186;19.958;2022-08-11T11:51:19;6.53;;;1.15;;
56481;SDS011;42384;45.186;19.958;2022-08-11T11:53:45;3.78;;;0.90;;
56481;SDS011;42384;45.186;19.958;2022-08-11T11:56:12;2.58;;;0.90;;
56481;SDS011;42384;45.186;19.958;2022-08-11T11:58:39;20.35;;;2.35;;
56481;SDS011;42384;45.186;19.958;2022-08-11T12:01:24;21.38;;;2.17;;
56481;SDS011;42384;45.186;19.958;2022-08-11T12:06:17;6.78;;;1.13;;
56481;SDS011;42384;45.186;19.958;2022-08-11T12:08:46;6.32;;;0.90;;
56481;SDS011;42384;45.186;19.958;2022-08-11T12:11:13;5.50;;;0.80;;
56481;SDS011;42384;45.186;19.958;2022-08-11T12:14:04;11.60;;;3.00;;
56481;SDS011;42384;45.186;19.958;2022-08-11T12:16:30;4.78;;;1.00;;
56481;SDS011;42384;45.186;19.958;2022-08-11T12:18:57;2.30;;;1.00;;
56481;SDS011;42384;45.186;19.958;2022-08-11T12:21:25;5.32;;;0.98;;
56481;SDS011;42384;45.186;19.958;2022-08-11T12:23:52;3.25;;;0.95;;
56481;SDS011;42384;45.186;19.958;2022-08-11T12:26:38;1.13;;;0.63;;
56481;SDS011;42384;45.186;19.958;2022-08-11T12:29:13;5.65;;;1.02;;
56481;SDS011;42384;45.186;19.958;2022-08-11T12:31:40;8.80;;;1.40;;
56481;SDS011;42384;45.186;19.958;2022-08-11T12:34:11;5.13;;;1.00;;
56481;SDS011;42384;45.186;19.958;2022-08-11T12:36:42;3.50;;;0.80;;
56481;SDS011;42384;45.186;19.958;2022-08-11T12:39:09;3.20;;;0.85;;
56481;SDS011;42384;45.186;19.958;2022-08-11T12:41:36;7.47;;;0.90;;
56481;SDS011;42384;45.186;19.958;2022-08-11T12:44:26;13.93;;;1.35;;
56481;SDS011;42384;45.186;19.958;2022-08-11T12:47:18;13.77;;;0.82;;
56481;SDS011;42384;45.186;19.958;2022-08-11T12:49:48;6.85;;;1.30;;
56481;SDS011;42384;45.186;19.958;2022-08-11T12:52:34;4.88;;;0.57;;
56481;SDS011;42384;45.186;19.958;2022-08-11T12:55:01;3.85;;;0.70;;
56481;SDS011;42384;45.186;19.958;2022-08-11T12:57:35;4.68;;;0.80;;
56481;SDS011;42384;45.186;19.958;2022-08-11T13:00:23;11.05;;;1.52;;
56481;SDS011;42384;45.186;19.958;2022-08-11T13:03:09;11.43;;;1.47;;
56481;SDS011;42384;45.186;19.958;2022-08-11T13:05:59;3.95;;;0.90;;
56481;SDS011;42384;45.186;19.958;2022-08-11T13:08:26;6.15;;;0.85;;
56481;SDS011;42384;45.186;19.958;2022-08-11T13:10:54;7.10;;;1.25;;
56481;SDS011;42384;45.186;19.958;2022-08-11T13:13:40;11.13;;;1.15;;
56481;SDS011;42384;45.186;19.958;2022-08-11T13:16:08;15.82;;;1.40;;
56481;SDS011;42384;45.186;19.958;2022-08-11T13:18:35;2.88;;;0.80;;
56481;SDS011;42384;45.186;19.958;2022-08-11T13:21:02;5.55;;;0.75;;
56481;SDS011;42384;45.186;19.958;2022-08-11T13:23:29;4.70;;;0.73;;
56481;SDS011;42384;45.186;19.958;2022-08-11T13:25:55;4.78;;;1.00;;
56481;SDS011;42384;45.186;19.958;2022-08-11T13:28:22;3.08;;;0.77;;
56481;SDS011;42384;45.186;19.958;2022-08-11T13:33:43;8.65;;;0.95;;
56481;SDS011;42384;45.186;19.958;2022-08-11T13:36:10;3.10;;;0.85;;
56481;SDS011;42384;45.186;19.958;2022-08-11T13:38:37;6.88;;;0.75;;
56481;SDS011;42384;45.186;19.958;2022-08-11T13:41:05;3.67;;;0.60;;
56481;SDS011;42384;45.186;19.958;2022-08-11T13:43:51;3.58;;;0.57;;
56481;SDS011;42384;45.186;19.958;2022-08-11T13:46:19;4.10;;;0.80;;
56481;SDS011;42384;45.186;19.958;2022-08-11T13:48:46;10.98;;;1.42;;
56481;SDS011;42384;45.186;19.958;2022-08-11T13:51:14;3.83;;;0.80;;
56481;SDS011;42384;45.186;19.958;2022-08-11T13:54:02;14.82;;;1.27;;
56481;SDS011;42384;45.186;19.958;2022-08-11T13:56:29;5.82;;;1.30;;
56481;SDS011;42384;45.186;19.958;2022-08-11T13:58:56;2.97;;;0.70;;
56481;SDS011;42384;45.186;19.958;2022-08-11T14:01:24;5.07;;;0.60;;
56481;SDS011;42384;45.186;19.958;2022-08-11T14:03:51;4.20;;;0.93;;
56481;SDS011;42384;45.186;19.958;2022-08-11T14:06:18;7.10;;;0.70;;
56481;SDS011;42384;45.186;19.958;2022-08-11T14:08:45;8.15;;;0.80;;
56481;SDS011;42384;45.186;19.958;2022-08-11T14:13:56;4.72;;;0.70;;
56481;SDS011;42384;45.186;19.958;2022-08-11T14:16:28;9.82;;;1.05;;
56481;SDS011;42384;45.186;19.958;2022-08-11T14:18:56;8.60;;;0.93;;
56481;SDS011;42384;45.186;19.958;2022-08-11T14:21:23;12.20;;;1.05;;
56481;SDS011;42384;45.186;19.958;2022-08-11T14:24:09;10.95;;;1.00;;
56481;SDS011;42384;45.186;19.958;2022-08-11T14:26:36;6.32;;;0.77;;
56481;SDS011;42384;45.186;19.958;2022-08-11T14:29:05;5.50;;;0.73;;
56481;SDS011;42384;45.186;19.958;2022-08-11T14:31:32;3.22;;;0.70;;
56481;SDS011;42384;45.186;19.958;2022-08-11T14:34:03;5.32;;;1.23;;
56481;SDS011;42384;45.186;19.958;2022-08-11T14:36:33;3.92;;;0.70;;
56481;SDS011;42384;45.186;19.958;2022-08-11T14:39:01;4.28;;;1.00;;
56481;SDS011;42384;45.186;19.958;2022-08-11T14:41:28;6.00;;;0.68;;
56481;SDS011;42384;45.186;19.958;2022-08-11T14:44:13;2.10;;;0.70;;
56481;SDS011;42384;45.186;19.958;2022-08-11T14:46:58;1.70;;;0.50;;
56481;SDS011;42384;45.186;19.958;2022-08-11T14:49:30;6.40;;;0.65;;
56481;SDS011;42384;45.186;19.958;2022-08-11T14:51:59;7.72;;;0.70;;
56481;SDS011;42384;45.186;19.958;2022-08-11T14:54:27;2.03;;;0.45;;
56481;SDS011;42384;45.186;19.958;2022-08-11T14:57:12;3.33;;;0.73;;
56481;SDS011;42384;45.186;19.958;2022-08-11T14:59:39;4.47;;;0.77;;
56481;SDS011;42384;45.186;19.958;2022-08-11T15:02:05;4.45;;;0.70;;
56481;SDS011;42384;45.186;19.958;2022-08-11T15:04:50;2.75;;;0.80;;
56481;SDS011;42384;45.186;19.958;2022-08-11T15:07:17;12.57;;;7.88;;
56481;SDS011;42384;45.186;19.958;2022-08-11T15:09:49;1.90;;;0.60;;
56481;SDS011;42384;45.186;19.958;2022-08-11T15:12:15;13.68;;;10.73;;
56481;SDS011;42384;45.186;19.958;2022-08-11T15:14:45;6.35;;;0.85;;
56481;SDS011;42384;45.186;19.958;2022-08-11T15:17:30;1.23;;;0.65;;
56481;SDS011;42384;45.186;19.958;2022-08-11T15:19:59;3.45;;;0.55;;
56481;SDS011;42384;45.186;19.958;2022-08-11T15:22:44;2.25;;;0.68;;
56481;SDS011;42384;45.186;19.958;2022-08-11T15:25:29;3.00;;;0.63;;
56481;SDS011;42384;45.186;19.958;2022-08-11T15:27:58;4.35;;;0.80;;
56481;SDS011;42384;45.186;19.958;2022-08-11T15:30:44;3.75;;;0.82;;
56481;SDS011;42384;45.186;19.958;2022-08-11T15:33:30;5.72;;;0.60;;
56481;SDS011;42384;45.186;19.958;2022-08-11T15:36:17;3.50;;;0.43;;
56481;SDS011;42384;45.186;19.958;2022-08-11T15:39:08;5.47;;;0.60;;
56481;SDS011;42384;45.186;19.958;2022-08-11T15:41:38;3.30;;;0.50;;
56481;SDS011;42384;45.186;19.958;2022-08-11T15:44:23;3.67;;;0.63;;
56481;SDS011;42384;45.186;19.958;2022-08-11T15:47:09;2.67;;;0.60;;
56481;SDS011;42384;45.186;19.958;2022-08-11T15:49:38;3.88;;;0.68;;
56481;SDS011;42384;45.186;19.958;2022-08-11T15:52:07;2.38;;;0.88;;
56481;SDS011;42384;45.186;19.958;2022-08-11T15:54:37;4.53;;;0.88;;
56481;SDS011;42384;45.186;19.958;2022-08-11T15:57:06;3.13;;;0.63;;
56481;SDS011;42384;45.186;19.958;2022-08-11T15:59:34;4.30;;;1.08;;
56481;SDS011;42384;45.186;19.958;2022-08-11T16:02:23;5.50;;;1.20;;
56481;SDS011;42384;45.186;19.958;2022-08-11T16:05:10;13.80;;;1.58;;
56481;SDS011;42384;45.186;19.958;2022-08-11T16:07:37;5.85;;;0.90;;
56481;SDS011;42384;45.186;19.958;2022-08-11T16:10:06;4.70;;;0.88;;
56481;SDS011;42384;45.186;19.958;2022-08-11T16:12:38;3.35;;;0.93;;
56481;SDS011;42384;45.186;19.958;2022-08-11T16:15:06;1.77;;;0.95;;
56481;SDS011;42384;45.186;19.958;2022-08-11T16:17:52;4.90;;;1.00;;
56481;SDS011;42384;45.186;19.958;2022-08-11T16:20:22;2.90;;;0.90;;
56481;SDS011;42384;45.186;19.958;2022-08-11T16:22:48;3.80;;;0.93;;
56481;SDS011;42384;45.186;19.958;2022-08-11T16:25:22;2.47;;;0.80;;
56481;SDS011;42384;45.186;19.958;2022-08-11T16:27:50;1.75;;;0.70;;
56481;SDS011;42384;45.186;19.958;2022-08-11T16:30:16;6.45;;;0.60;;
56481;SDS011;42384;45.186;19.958;2022-08-11T16:35:10;4.35;;;0.90;;
56481;SDS011;42384;45.186;19.958;2022-08-11T16:37:55;1.35;;;0.63;;
56481;SDS011;42384;45.186;19.958;2022-08-11T16:40:40;8.27;;;1.00;;
56481;SDS011;42384;45.186;19.958;2022-08-11T16:43:09;4.88;;;0.90;;
56481;SDS011;42384;45.186;19.958;2022-08-11T16:45:55;5.78;;;0.95;;
56481;SDS011;42384;45.186;19.958;2022-08-11T16:49:09;8.30;;;0.80;;
56481;SDS011;42384;45.186;19.958;2022-08-11T16:51:36;5.20;;;0.85;;
56481;SDS011;42384;45.186;19.958;2022-08-11T16:54:02;4.32;;;0.77;;
56481;SDS011;42384;45.186;19.958;2022-08-11T16:58:55;3.75;;;1.23;;
56481;SDS011;42384;45.186;19.958;2022-08-11T17:01:39;2.95;;;1.10;;
56481;SDS011;42384;45.186;19.958;2022-08-11T17:04:07;6.40;;;1.40;;
56481;SDS011;42384;45.186;19.958;2022-08-11T17:06:53;6.82;;;3.80;;
56481;SDS011;42384;45.186;19.958;2022-08-11T17:09:37;5.07;;;1.92;;
56481;SDS011;42384;45.186;19.958;2022-08-11T17:12:24;8.05;;;2.58;;
56481;SDS011;42384;45.186;19.958;2022-08-11T17:15:11;8.57;;;6.20;;
56481;SDS011;42384;45.186;19.958;2022-08-11T17:17:59;7.95;;;3.53;;
56481;SDS011;42384;45.186;19.958;2022-08-11T17:20:26;12.23;;;7.00;;
56481;SDS011;42384;45.186;19.958;2022-08-11T17:22:53;8.80;;;3.15;;
56481;SDS011;42384;45.186;19.958;2022-08-11T17:25:38;7.88;;;4.97;;
56481;SDS011;42384;45.186;19.958;2022-08-11T17:28:05;5.63;;;4.50;;
56481;SDS011;42384;45.186;19.958;2022-08-11T17:30:32;7.82;;;3.75;;
56481;SDS011;42384;45.186;19.958;2022-08-11T17:33:18;6.75;;;4.03;;
56481;SDS011;42384;45.186;19.958;2022-08-11T17:36:04;5.30;;;4.10;;
56481;SDS011;42384;45.186;19.958;2022-08-11T17:38:31;8.18;;;3.97;;
56481;SDS011;42384;45.186;19.958;2022-08-11T17:41:00;5.43;;;3.17;;
56481;SDS011;42384;45.186;19.958;2022-08-11T17:43:45;6.03;;;3.42;;
56481;SDS011;42384;45.186;19.958;2022-08-11T17:46:30;4.93;;;2.15;;
56481;SDS011;42384;45.186;19.958;2022-08-11T17:49:16;5.53;;;2.47;;
56481;SDS011;42384;45.186;19.958;2022-08-11T17:51:44;5.32;;;2.53;;
56481;SDS011;42384;45.186;19.958;2022-08-11T17:54:30;2.97;;;2.03;;
56481;SDS011;42384;45.186;19.958;2022-08-11T17:57:16;7.20;;;2.05;;
56481;SDS011;42384;45.186;19.958;2022-08-11T18:00:12;5.53;;;1.50;;
56481;SDS011;42384;45.186;19.958;2022-08-11T18:05:24;7.07;;;1.38;;
56481;SDS011;42384;45.186;19.958;2022-08-11T18:07:52;6.75;;;1.20;;
56481;SDS011;42384;45.186;19.958;2022-08-11T18:10:38;5.57;;;1.27;;
56481;SDS011;42384;45.186;19.958;2022-08-11T18:13:24;4.45;;;1.42;;
56481;SDS011;42384;45.186;19.958;2022-08-11T18:16:10;8.53;;;1.80;;
56481;SDS011;42384;45.186;19.958;2022-08-11T18:18:55;3.10;;;1.15;;
56481;SDS011;42384;45.186;19.958;2022-08-11T18:21:41;7.68;;;1.17;;
56481;SDS011;42384;45.186;19.958;2022-08-11T18:24:29;4.20;;;1.10;;
56481;SDS011;42384;45.186;19.958;2022-08-11T18:30:00;6.32;;;0.80;;
56481;SDS011;42384;45.186;19.958;2022-08-11T18:32:47;4.70;;;0.90;;
56481;SDS011;42384;45.186;19.958;2022-08-11T18:35:32;5.68;;;1.10;;
56481;SDS011;42384;45.186;19.958;2022-08-11T18:38:18;7.63;;;1.20;;
56481;SDS011;42384;45.186;19.958;2022-08-11T18:41:05;5.80;;;1.52;;
56481;SDS011;42384;45.186;19.958;2022-08-11T18:43:50;4.45;;;1.55;;
56481;SDS011;42384;45.186;19.958;2022-08-11T18:46:37;6.72;;;1.05;;
56481;SDS011;42384;45.186;19.958;2022-08-11T18:49:25;4.20;;;1.00;;
56481;SDS011;42384;45.186;19.958;2022-08-11T18:52:10;2.58;;;0.93;;
56481;SDS011;42384;45.186;19.958;2022-08-11T18:54:57;4.63;;;1.13;;
56481;SDS011;42384;45.186;19.958;2022-08-11T18:57:44;5.32;;;1.00;;
56481;SDS011;42384;45.186;19.958;2022-08-11T19:00:30;28.38;;;19.50;;
56481;SDS011;42384;45.186;19.958;2022-08-11T19:03:16;38.00;;;33.30;;
56481;SDS011;42384;45.186;19.958;2022-08-11T19:06:02;40.25;;;32.80;;
56481;SDS011;42384;45.186;19.958;2022-08-11T19:08:51;31.55;;;27.13;;
56481;SDS011;42384;45.186;19.958;2022-08-11T19:11:37;11.70;;;4.72;;